sensor_id;sensor_type;location;lat;lon;timestamp;P1;durP1;ratioP1;P2;durP2;ratioP2
2211;SDS011;48849;48.758;9.158;2022-10-17T00:00:38;9.63;;;3.50;;
2211;SDS011;48849;48.758;9.158;2022-10-17T00:03:05;5.10;;;2.58;;
2211;SDS011;48849;48.758;9.158;2022-10-17T00:05:32;6.35;;;2.83;;
2211;SDS011;48849;48.758;9.158;2022-10-17T00:07:58;6.80;;;2.95;;
2211;SDS011;48849;48.758;9.158;2022-10-17T00:10:25;4.85;;;3.28;;
2211;SDS011;48849;48.758;9.158;2022-10-17T00:12:52;6.13;;;3.00;;
2211;SDS011;48849;48.758;9.158;2022-10-17T00:15:19;7.55;;;3.00;;
2211;SDS011;48849;48.758;9.158;2022-10-17T00:17:48;7.82;;;3.10;;
2211;SDS011;48849;48.758;9.158;2022-10-17T00:20:15;3.35;;;2.67;;
2211;SDS011;48849;48.758;9.158;2022-10-17T00:22:42;5.20;;;2.72;;
2211;SDS011;48849;48.758;9.158;2022-10-17T00:25:09;3.05;;;2.50;;
2211;SDS011;48849;48.758;9.158;2022-10-17T00:27:36;6.00;;;2.75;;
2211;SDS011;48849;48.758;9.158;2022-10-17T00:30:04;6.00;;;3.40;;
2211;SDS011;48849;48.758;9.158;2022-10-17T00:32:32;6.30;;;2.97;;
2211;SDS011;48849;48.758;9.158;2022-10-17T00:35:00;3.85;;;3.35;;
2211;SDS011;48849;48.758;9.158;2022-10-17T00:37:28;6.95;;;3.10;;
2211;SDS011;48849;48.758;9.158;2022-10-17T00:39:55;7.63;;;2.80;;
2211;SDS011;48849;48.758;9.158;2022-10-17T00:42:22;7.25;;;3.00;;
2211;SDS011;48849;48.758;9.158;2022-10-17T00:45:04;4.50;;;2.90;;
2211;SDS011;48849;48.758;9.158;2022-10-17T00:47:37;4.80;;;2.70;;
2211;SDS011;48849;48.758;9.158;2022-10-17T00:50:06;10.13;;;2.97;;
2211;SDS011;48849;48.758;9.158;2022-10-17T00:52:34;2.90;;;2.65;;
2211;SDS011;48849;48.758;9.158;2022-10-17T00:55:02;6.00;;;3.58;;
2211;SDS011;48849;48.758;9.158;2022-10-17T00:57:34;7.35;;;2.85;;
2211;SDS011;48849;48.758;9.158;2022-10-17T01:00:01;4.05;;;3.28;;
2211;SDS011;48849;48.758;9.158;2022-10-17T01:02:31;5.68;;;2.97;;
2211;SDS011;48849;48.758;9.158;2022-10-17T01:04:58;4.78;;;2.63;;
2211;SDS011;48849;48.758;9.158;2022-10-17T01:07:27;6.72;;;2.70;;
2211;SDS011;48849;48.758;9.158;2022-10-17T01:09:55;11.90;;;3.28;;
2211;SDS011;48849;48.758;9.158;2022-10-17T01:12:23;3.10;;;2.63;;
2211;SDS011;48849;48.758;9.158;2022-10-17T01:14:57;4.88;;;2.85;;
2211;SDS011;48849;48.758;9.158;2022-10-17T01:17:34;6.15;;;2.40;;
2211;SDS011;48849;48.758;9.158;2022-10-17T01:23:31;5.32;;;2.70;;
2211;SDS011;48849;48.758;9.158;2022-10-17T01:26:35;4.85;;;3.00;;
2211;SDS011;48849;48.758;9.158;2022-10-17T01:29:27;9.38;;;2.67;;
2211;SDS011;48849;48.758;9.158;2022-10-17T01:32:08;8.07;;;3.13;;
2211;SDS011;48849;48.758;9.158;2022-10-17T01:34:38;5.55;;;2.40;;
2211;SDS011;48849;48.758;9.158;2022-10-17T01:37:12;2.50;;;2.30;;
2211;SDS011;48849;48.758;9.158;2022-10-17T01:39:45;4.63;;;2.95;;
2211;SDS011;48849;48.758;9.158;2022-10-17T01:42:16;3.97;;;3.10;;
2211;SDS011;48849;48.758;9.158;2022-10-17T01:44:47;5.75;;;2.97;;
2211;SDS011;48849;48.758;9.158;2022-10-17T01:47:21;4.05;;;2.50;;
2211;SDS011;48849;48.758;9.158;2022-10-17T01:49:52;5.25;;;2.50;;
2211;SDS011;48849;48.758;9.158;2022-10-17T01:52:23;4.50;;;3.03;;
2211;SDS011;48849;48.758;9.158;2022-10-17T01:54:53;8.45;;;3.10;;
2211;SDS011;48849;48.758;9.158;2022-10-17T01:57:25;4.25;;;2.60;;
2211;SDS011;48849;48.758;9.158;2022-10-17T01:59:57;7.65;;;3.05;;
2211;SDS011;48849;48.758;9.158;2022-10-17T02:02:26;4.65;;;4.18;;
2211;SDS011;48849;48.758;9.158;2022-10-17T02:04:54;2.58;;;2.33;;
2211;SDS011;48849;48.758;9.158;2022-10-17T02:07:22;3.20;;;2.90;;
2211;SDS011;48849;48.758;9.158;2022-10-17T02:09:49;3.08;;;2.40;;
2211;SDS011;48849;48.758;9.158;2022-10-17T02:12:27;3.83;;;2.65;;
2211;SDS011;48849;48.758;9.158;2022-10-17T02:18:02;3.13;;;2.63;;
2211;SDS011;48849;48.758;9.158;2022-10-17T02:20:36;6.15;;;2.92;;
2211;SDS011;48849;48.758;9.158;2022-10-17T02:23:11;2.88;;;2.58;;
2211;SDS011;48849;48.758;9.158;2022-10-17T02:25:47;5.38;;;3.20;;
2211;SDS011;48849;48.758;9.158;2022-10-17T02:28:19;3.90;;;3.50;;
2211;SDS011;48849;48.758;9.158;2022-10-17T02:30:50;3.53;;;2.80;;
2211;SDS011;48849;48.758;9.158;2022-10-17T02:33:22;12.30;;;3.10;;
2211;SDS011;48849;48.758;9.158;2022-10-17T02:35:53;5.65;;;2.95;;
2211;SDS011;48849;48.758;9.158;2022-10-17T02:38:23;7.88;;;2.78;;
2211;SDS011;48849;48.758;9.158;2022-10-17T02:40:52;7.90;;;3.20;;
2211;SDS011;48849;48.758;9.158;2022-10-17T02:43:19;8.00;;;3.85;;
2211;SDS011;48849;48.758;9.158;2022-10-17T02:45:47;10.10;;;2.90;;
2211;SDS011;48849;48.758;9.158;2022-10-17T02:48:16;4.07;;;3.00;;
2211;SDS011;48849;48.758;9.158;2022-10-17T02:50:51;4.32;;;3.10;;
2211;SDS011;48849;48.758;9.158;2022-10-17T02:53:24;6.43;;;3.70;;
2211;SDS011;48849;48.758;9.158;2022-10-17T02:55:58;8.27;;;3.60;;
2211;SDS011;48849;48.758;9.158;2022-10-17T02:58:30;3.40;;;2.90;;
2211;SDS011;48849;48.758;9.158;2022-10-17T03:00:59;5.55;;;2.90;;
2211;SDS011;48849;48.758;9.158;2022-10-17T03:03:27;10.32;;;3.40;;
2211;SDS011;48849;48.758;9.158;2022-10-17T03:05:57;6.65;;;3.75;;
2211;SDS011;48849;48.758;9.158;2022-10-17T03:08:23;4.38;;;2.95;;
2211;SDS011;48849;48.758;9.158;2022-10-17T03:10:50;11.77;;;3.70;;
2211;SDS011;48849;48.758;9.158;2022-10-17T03:13:17;8.35;;;3.30;;
2211;SDS011;48849;48.758;9.158;2022-10-17T03:15:44;4.88;;;2.58;;
2211;SDS011;48849;48.758;9.158;2022-10-17T03:18:11;6.20;;;3.13;;
2211;SDS011;48849;48.758;9.158;2022-10-17T03:20:38;3.60;;;2.83;;
2211;SDS011;48849;48.758;9.158;2022-10-17T03:23:06;7.30;;;3.72;;
2211;SDS011;48849;48.758;9.158;2022-10-17T03:25:33;6.30;;;3.40;;
2211;SDS011;48849;48.758;9.158;2022-10-17T03:27:59;9.60;;;3.42;;
2211;SDS011;48849;48.758;9.158;2022-10-17T03:30:26;11.98;;;3.30;;
2211;SDS011;48849;48.758;9.158;2022-10-17T03:32:53;6.75;;;2.80;;
2211;SDS011;48849;48.758;9.158;2022-10-17T03:35:20;4.13;;;3.20;;
2211;SDS011;48849;48.758;9.158;2022-10-17T03:37:46;7.32;;;3.20;;
2211;SDS011;48849;48.758;9.158;2022-10-17T03:40:15;3.60;;;3.08;;
2211;SDS011;48849;48.758;9.158;2022-10-17T03:42:42;5.30;;;2.75;;
2211;SDS011;48849;48.758;9.158;2022-10-17T03:45:08;4.65;;;3.38;;
2211;SDS011;48849;48.758;9.158;2022-10-17T03:47:35;10.52;;;3.15;;
2211;SDS011;48849;48.758;9.158;2022-10-17T03:50:02;9.23;;;3.25;;
2211;SDS011;48849;48.758;9.158;2022-10-17T03:52:29;5.57;;;3.47;;
2211;SDS011;48849;48.758;9.158;2022-10-17T03:54:56;5.75;;;3.20;;
2211;SDS011;48849;48.758;9.158;2022-10-17T03:57:24;7.82;;;3.00;;
2211;SDS011;48849;48.758;9.158;2022-10-17T03:59:51;8.88;;;3.05;;
2211;SDS011;48849;48.758;9.158;2022-10-17T04:02:18;3.75;;;3.25;;
2211;SDS011;48849;48.758;9.158;2022-10-17T04:04:44;3.80;;;3.30;;
2211;SDS011;48849;48.758;9.158;2022-10-17T04:07:12;5.85;;;3.65;;
2211;SDS011;48849;48.758;9.158;2022-10-17T04:09:38;6.40;;;2.80;;
2211;SDS011;48849;48.758;9.158;2022-10-17T04:12:05;7.60;;;3.50;;
2211;SDS011;48849;48.758;9.158;2022-10-17T04:14:33;6.60;;;2.80;;
2211;SDS011;48849;48.758;9.158;2022-10-17T04:17:01;3.90;;;2.85;;
2211;SDS011;48849;48.758;9.158;2022-10-17T04:19:28;4.50;;;3.00;;
2211;SDS011;48849;48.758;9.158;2022-10-17T04:21:54;5.63;;;3.13;;
2211;SDS011;48849;48.758;9.158;2022-10-17T04:24:21;9.52;;;3.28;;
2211;SDS011;48849;48.758;9.158;2022-10-17T04:26:49;5.20;;;2.97;;
2211;SDS011;48849;48.758;9.158;2022-10-17T04:29:16;5.82;;;2.95;;
2211;SDS011;48849;48.758;9.158;2022-10-17T04:31:44;6.32;;;3.00;;
2211;SDS011;48849;48.758;9.158;2022-10-17T04:34:11;3.60;;;3.25;;
2211;SDS011;48849;48.758;9.158;2022-10-17T04:36:38;5.75;;;2.90;;
2211;SDS011;48849;48.758;9.158;2022-10-17T04:39:05;8.70;;;3.30;;
2211;SDS011;48849;48.758;9.158;2022-10-17T04:41:32;7.25;;;3.60;;
2211;SDS011;48849;48.758;9.158;2022-10-17T04:43:59;11.45;;;2.95;;
2211;SDS011;48849;48.758;9.158;2022-10-17T04:46:26;7.40;;;2.90;;
2211;SDS011;48849;48.758;9.158;2022-10-17T04:48:54;6.25;;;3.38;;
2211;SDS011;48849;48.758;9.158;2022-10-17T04:51:20;9.02;;;3.40;;
2211;SDS011;48849;48.758;9.158;2022-10-17T04:53:47;5.50;;;3.10;;
2211;SDS011;48849;48.758;9.158;2022-10-17T04:56:15;5.35;;;2.92;;
2211;SDS011;48849;48.758;9.158;2022-10-17T04:58:43;4.70;;;4.15;;
2211;SDS011;48849;48.758;9.158;2022-10-17T05:01:11;9.68;;;4.60;;
2211;SDS011;48849;48.758;9.158;2022-10-17T05:03:39;15.82;;;10.63;;
2211;SDS011;48849;48.758;9.158;2022-10-17T05:06:08;11.13;;;6.10;;
2211;SDS011;48849;48.758;9.158;2022-10-17T05:08:36;5.93;;;3.80;;
2211;SDS011;48849;48.758;9.158;2022-10-17T05:11:03;11.05;;;3.60;;
2211;SDS011;48849;48.758;9.158;2022-10-17T05:13:30;4.30;;;3.33;;
2211;SDS011;48849;48.758;9.158;2022-10-17T05:15:58;6.32;;;3.00;;
2211;SDS011;48849;48.758;9.158;2022-10-17T05:18:25;8.07;;;3.72;;
2211;SDS011;48849;48.758;9.158;2022-10-17T05:20:52;14.93;;;3.88;;
2211;SDS011;48849;48.758;9.158;2022-10-17T05:23:20;6.60;;;3.20;;
2211;SDS011;48849;48.758;9.158;2022-10-17T05:25:46;3.83;;;3.22;;
2211;SDS011;48849;48.758;9.158;2022-10-17T05:28:18;6.80;;;3.08;;
2211;SDS011;48849;48.758;9.158;2022-10-17T05:30:45;11.13;;;7.60;;
2211;SDS011;48849;48.758;9.158;2022-10-17T05:33:12;9.80;;;7.22;;
2211;SDS011;48849;48.758;9.158;2022-10-17T05:35:38;12.95;;;4.57;;
2211;SDS011;48849;48.758;9.158;2022-10-17T05:38:05;5.88;;;3.13;;
2211;SDS011;48849;48.758;9.158;2022-10-17T05:40:33;3.92;;;3.53;;
2211;SDS011;48849;48.758;9.158;2022-10-17T05:43:00;6.05;;;4.00;;
2211;SDS011;48849;48.758;9.158;2022-10-17T05:45:27;5.15;;;3.75;;
2211;SDS011;48849;48.758;9.158;2022-10-17T05:47:53;5.85;;;3.95;;
2211;SDS011;48849;48.758;9.158;2022-10-17T05:50:20;9.30;;;3.67;;
2211;SDS011;48849;48.758;9.158;2022-10-17T05:52:51;4.70;;;3.60;;
2211;SDS011;48849;48.758;9.158;2022-10-17T05:55:18;11.40;;;3.78;;
2211;SDS011;48849;48.758;9.158;2022-10-17T05:57:46;11.82;;;7.80;;
2211;SDS011;48849;48.758;9.158;2022-10-17T06:00:13;4.68;;;4.05;;
2211;SDS011;48849;48.758;9.158;2022-10-17T06:02:41;6.18;;;3.90;;
2211;SDS011;48849;48.758;9.158;2022-10-17T06:05:10;8.45;;;5.43;;
2211;SDS011;48849;48.758;9.158;2022-10-17T06:07:37;11.63;;;5.78;;
2211;SDS011;48849;48.758;9.158;2022-10-17T06:10:04;5.75;;;4.03;;
2211;SDS011;48849;48.758;9.158;2022-10-17T06:12:31;7.03;;;3.72;;
2211;SDS011;48849;48.758;9.158;2022-10-17T06:14:59;5.50;;;3.70;;
2211;SDS011;48849;48.758;9.158;2022-10-17T06:17:25;5.57;;;3.90;;
2211;SDS011;48849;48.758;9.158;2022-10-17T06:19:53;10.02;;;3.65;;
2211;SDS011;48849;48.758;9.158;2022-10-17T06:22:19;7.65;;;3.05;;
2211;SDS011;48849;48.758;9.158;2022-10-17T06:24:46;5.28;;;3.88;;
2211;SDS011;48849;48.758;9.158;2022-10-17T06:27:13;11.48;;;6.88;;
2211;SDS011;48849;48.758;9.158;2022-10-17T06:29:40;7.50;;;3.70;;
2211;SDS011;48849;48.758;9.158;2022-10-17T06:32:08;3.95;;;3.40;;
2211;SDS011;48849;48.758;9.158;2022-10-17T06:34:34;4.30;;;3.40;;
2211;SDS011;48849;48.758;9.158;2022-10-17T06:37:01;5.75;;;3.78;;
2211;SDS011;48849;48.758;9.158;2022-10-17T06:39:28;4.55;;;3.65;;
2211;SDS011;48849;48.758;9.158;2022-10-17T06:41:57;6.95;;;3.33;;
2211;SDS011;48849;48.758;9.158;2022-10-17T06:44:24;3.75;;;3.40;;
2211;SDS011;48849;48.758;9.158;2022-10-17T06:46:54;3.83;;;3.22;;
2211;SDS011;48849;48.758;9.158;2022-10-17T06:49:22;8.30;;;3.65;;
2211;SDS011;48849;48.758;9.158;2022-10-17T06:51:49;3.60;;;3.30;;
2211;SDS011;48849;48.758;9.158;2022-10-17T06:54:16;7.40;;;4.03;;
2211;SDS011;48849;48.758;9.158;2022-10-17T06:56:43;3.83;;;3.38;;
2211;SDS011;48849;48.758;9.158;2022-10-17T06:59:09;5.80;;;3.88;;
2211;SDS011;48849;48.758;9.158;2022-10-17T07:01:36;5.35;;;4.18;;
2211;SDS011;48849;48.758;9.158;2022-10-17T07:04:03;3.95;;;3.50;;
2211;SDS011;48849;48.758;9.158;2022-10-17T07:06:31;6.10;;;3.83;;
2211;SDS011;48849;48.758;9.158;2022-10-17T07:08:59;8.43;;;4.32;;
2211;SDS011;48849;48.758;9.158;2022-10-17T07:11:26;8.75;;;3.92;;
2211;SDS011;48849;48.758;9.158;2022-10-17T07:13:53;6.50;;;4.40;;
2211;SDS011;48849;48.758;9.158;2022-10-17T07:16:20;6.43;;;4.32;;
2211;SDS011;48849;48.758;9.158;2022-10-17T07:18:47;8.25;;;3.75;;
2211;SDS011;48849;48.758;9.158;2022-10-17T07:21:14;5.10;;;3.53;;
2211;SDS011;48849;48.758;9.158;2022-10-17T07:23:42;16.38;;;5.32;;
2211;SDS011;48849;48.758;9.158;2022-10-17T07:26:10;7.78;;;4.13;;
2211;SDS011;48849;48.758;9.158;2022-10-17T07:28:38;9.23;;;4.10;;
2211;SDS011;48849;48.758;9.158;2022-10-17T07:31:07;8.50;;;4.13;;
2211;SDS011;48849;48.758;9.158;2022-10-17T07:33:35;8.90;;;3.95;;
2211;SDS011;48849;48.758;9.158;2022-10-17T07:36:02;12.68;;;5.00;;
2211;SDS011;48849;48.758;9.158;2022-10-17T07:38:30;7.22;;;4.78;;
2211;SDS011;48849;48.758;9.158;2022-10-17T07:40:58;5.10;;;4.03;;
2211;SDS011;48849;48.758;9.158;2022-10-17T07:43:27;7.20;;;3.67;;
2211;SDS011;48849;48.758;9.158;2022-10-17T07:45:54;9.45;;;4.53;;
2211;SDS011;48849;48.758;9.158;2022-10-17T07:48:21;6.22;;;4.40;;
2211;SDS011;48849;48.758;9.158;2022-10-17T07:50:49;5.50;;;4.28;;
2211;SDS011;48849;48.758;9.158;2022-10-17T07:53:16;9.25;;;4.15;;
2211;SDS011;48849;48.758;9.158;2022-10-17T07:58:30;6.20;;;4.68;;
2211;SDS011;48849;48.758;9.158;2022-10-17T08:00:59;5.75;;;4.43;;
2211;SDS011;48849;48.758;9.158;2022-10-17T08:03:26;12.23;;;4.57;;
2211;SDS011;48849;48.758;9.158;2022-10-17T08:05:55;5.70;;;4.55;;
2211;SDS011;48849;48.758;9.158;2022-10-17T08:08:23;10.13;;;4.32;;
2211;SDS011;48849;48.758;9.158;2022-10-17T08:10:50;11.65;;;4.40;;
2211;SDS011;48849;48.758;9.158;2022-10-17T08:13:17;7.05;;;3.90;;
2211;SDS011;48849;48.758;9.158;2022-10-17T08:15:45;6.85;;;4.80;;
2211;SDS011;48849;48.758;9.158;2022-10-17T08:18:12;10.32;;;4.18;;
2211;SDS011;48849;48.758;9.158;2022-10-17T08:20:39;5.55;;;3.95;;
2211;SDS011;48849;48.758;9.158;2022-10-17T08:23:07;6.35;;;4.47;;
2211;SDS011;48849;48.758;9.158;2022-10-17T08:25:33;5.15;;;3.85;;
2211;SDS011;48849;48.758;9.158;2022-10-17T08:28:02;10.32;;;5.07;;
2211;SDS011;48849;48.758;9.158;2022-10-17T08:30:29;5.13;;;4.50;;
2211;SDS011;48849;48.758;9.158;2022-10-17T08:32:57;6.60;;;4.40;;
2211;SDS011;48849;48.758;9.158;2022-10-17T08:35:24;6.68;;;5.10;;
2211;SDS011;48849;48.758;9.158;2022-10-17T08:37:51;9.10;;;5.53;;
2211;SDS011;48849;48.758;9.158;2022-10-17T08:40:18;7.95;;;5.80;;
2211;SDS011;48849;48.758;9.158;2022-10-17T08:42:50;9.88;;;6.65;;
2211;SDS011;48849;48.758;9.158;2022-10-17T08:45:29;10.90;;;7.18;;
2211;SDS011;48849;48.758;9.158;2022-10-17T08:48:00;8.63;;;7.55;;
2211;SDS011;48849;48.758;9.158;2022-10-17T08:50:31;9.33;;;7.93;;
2211;SDS011;48849;48.758;9.158;2022-10-17T08:53:03;11.50;;;8.50;;
2211;SDS011;48849;48.758;9.158;2022-10-17T08:55:36;10.13;;;8.73;;
2211;SDS011;48849;48.758;9.158;2022-10-17T08:58:10;11.43;;;9.43;;
2211;SDS011;48849;48.758;9.158;2022-10-17T09:00:39;9.90;;;8.60;;
2211;SDS011;48849;48.758;9.158;2022-10-17T09:03:16;19.13;;;10.05;;
2211;SDS011;48849;48.758;9.158;2022-10-17T09:05:55;11.32;;;9.10;;
2211;SDS011;48849;48.758;9.158;2022-10-17T09:08:34;9.38;;;8.48;;
2211;SDS011;48849;48.758;9.158;2022-10-17T09:11:08;8.48;;;7.53;;
2211;SDS011;48849;48.758;9.158;2022-10-17T09:13:44;11.05;;;7.93;;
2211;SDS011;48849;48.758;9.158;2022-10-17T09:16:29;11.82;;;8.57;;
2211;SDS011;48849;48.758;9.158;2022-10-17T09:19:09;11.10;;;8.48;;
2211;SDS011;48849;48.758;9.158;2022-10-17T09:21:41;11.70;;;9.65;;
2211;SDS011;48849;48.758;9.158;2022-10-17T09:24:12;10.88;;;8.15;;
2211;SDS011;48849;48.758;9.158;2022-10-17T09:26:43;7.75;;;6.50;;
2211;SDS011;48849;48.758;9.158;2022-10-17T09:29:14;12.32;;;9.35;;
2211;SDS011;48849;48.758;9.158;2022-10-17T09:31:47;12.50;;;7.50;;
2211;SDS011;48849;48.758;9.158;2022-10-17T09:34:21;12.50;;;7.70;;
2211;SDS011;48849;48.758;9.158;2022-10-17T09:36:49;11.10;;;8.33;;
2211;SDS011;48849;48.758;9.158;2022-10-17T09:39:17;7.18;;;5.43;;
2211;SDS011;48849;48.758;9.158;2022-10-17T09:41:48;10.40;;;7.38;;
2211;SDS011;48849;48.758;9.158;2022-10-17T09:44:18;7.60;;;6.80;;
2211;SDS011;48849;48.758;9.158;2022-10-17T09:46:59;10.30;;;7.17;;
2211;SDS011;48849;48.758;9.158;2022-10-17T09:49:36;12.20;;;7.40;;
2211;SDS011;48849;48.758;9.158;2022-10-17T09:52:04;7.67;;;6.33;;
2211;SDS011;48849;48.758;9.158;2022-10-17T09:54:44;7.40;;;6.57;;
2211;SDS011;48849;48.758;9.158;2022-10-17T09:57:12;8.25;;;6.07;;
2211;SDS011;48849;48.758;9.158;2022-10-17T09:59:42;6.87;;;6.17;;
2211;SDS011;48849;48.758;9.158;2022-10-17T10:02:15;8.60;;;6.75;;
2211;SDS011;48849;48.758;9.158;2022-10-17T10:04:55;8.45;;;7.57;;
2211;SDS011;48849;48.758;9.158;2022-10-17T10:07:24;7.60;;;6.28;;
2211;SDS011;48849;48.758;9.158;2022-10-17T10:09:52;11.13;;;6.43;;
2211;SDS011;48849;48.758;9.158;2022-10-17T10:12:19;7.55;;;6.55;;
2211;SDS011;48849;48.758;9.158;2022-10-17T10:14:48;6.57;;;5.97;;
2211;SDS011;48849;48.758;9.158;2022-10-17T10:17:25;6.85;;;5.97;;
2211;SDS011;48849;48.758;9.158;2022-10-17T10:19:55;5.90;;;5.30;;
2211;SDS011;48849;48.758;9.158;2022-10-17T10:22:22;5.10;;;4.60;;
2211;SDS011;48849;48.758;9.158;2022-10-17T10:27:38;6.43;;;5.30;;
2211;SDS011;48849;48.758;9.158;2022-10-17T10:30:06;6.10;;;4.83;;
2211;SDS011;48849;48.758;9.158;2022-10-17T10:32:43;6.03;;;4.22;;
2211;SDS011;48849;48.758;9.158;2022-10-17T10:35:17;5.60;;;4.63;;
2211;SDS011;48849;48.758;9.158;2022-10-17T10:37:47;6.80;;;4.43;;
2211;SDS011;48849;48.758;9.158;2022-10-17T10:40:16;6.00;;;4.70;;
2211;SDS011;48849;48.758;9.158;2022-10-17T10:42:45;6.70;;;4.77;;
2211;SDS011;48849;48.758;9.158;2022-10-17T10:45:14;7.40;;;4.50;;
2211;SDS011;48849;48.758;9.158;2022-10-17T10:47:48;8.10;;;6.07;;
2211;SDS011;48849;48.758;9.158;2022-10-17T10:50:22;8.33;;;6.87;;
2211;SDS011;48849;48.758;9.158;2022-10-17T10:52:54;7.83;;;6.17;;
2211;SDS011;48849;48.758;9.158;2022-10-17T10:55:35;7.00;;;6.30;;
2211;SDS011;48849;48.758;9.158;2022-10-17T10:58:09;7.40;;;5.87;;
2211;SDS011;48849;48.758;9.158;2022-10-17T11:00:46;6.80;;;6.10;;
2211;SDS011;48849;48.758;9.158;2022-10-17T11:03:15;6.00;;;5.50;;
2211;SDS011;48849;48.758;9.158;2022-10-17T11:05:48;7.13;;;6.20;;
2211;SDS011;48849;48.758;9.158;2022-10-17T11:08:22;6.40;;;5.70;;
2211;SDS011;48849;48.758;9.158;2022-10-17T11:10:57;8.10;;;6.23;;
2211;SDS011;48849;48.758;9.158;2022-10-17T11:13:30;6.83;;;6.13;;
2211;SDS011;48849;48.758;9.158;2022-10-17T11:16:03;13.80;;;6.10;;
2211;SDS011;48849;48.758;9.158;2022-10-17T11:18:41;7.57;;;6.13;;
2211;SDS011;48849;48.758;9.158;2022-10-17T11:21:15;10.00;;;7.00;;
2211;SDS011;48849;48.758;9.158;2022-10-17T11:23:46;10.37;;;8.03;;
2211;SDS011;48849;48.758;9.158;2022-10-17T11:26:15;8.50;;;6.77;;
2211;SDS011;48849;48.758;9.158;2022-10-17T11:28:50;8.10;;;6.03;;
2211;SDS011;48849;48.758;9.158;2022-10-17T11:31:17;9.90;;;6.87;;
2211;SDS011;48849;48.758;9.158;2022-10-17T11:33:48;10.23;;;6.73;;
2211;SDS011;48849;48.758;9.158;2022-10-17T11:36:20;10.40;;;6.77;;
2211;SDS011;48849;48.758;9.158;2022-10-17T11:38:50;9.53;;;6.40;;
2211;SDS011;48849;48.758;9.158;2022-10-17T11:41:21;7.13;;;5.70;;
2211;SDS011;48849;48.758;9.158;2022-10-17T11:43:56;6.40;;;4.23;;
2211;SDS011;48849;48.758;9.158;2022-10-17T11:46:25;8.80;;;4.53;;
2211;SDS011;48849;48.758;9.158;2022-10-17T11:48:58;10.30;;;4.27;;
2211;SDS011;48849;48.758;9.158;2022-10-17T11:51:35;6.43;;;3.43;;
2211;SDS011;48849;48.758;9.158;2022-10-17T11:54:07;5.10;;;2.87;;
2211;SDS011;48849;48.758;9.158;2022-10-17T11:56:38;4.30;;;2.47;;
2211;SDS011;48849;48.758;9.158;2022-10-17T11:59:18;4.37;;;2.40;;
2211;SDS011;48849;48.758;9.158;2022-10-17T12:02:00;7.00;;;3.27;;
2211;SDS011;48849;48.758;9.158;2022-10-17T12:04:35;4.53;;;2.97;;
2211;SDS011;48849;48.758;9.158;2022-10-17T12:07:14;8.67;;;2.70;;
2211;SDS011;48849;48.758;9.158;2022-10-17T12:09:46;4.43;;;3.07;;
2211;SDS011;48849;48.758;9.158;2022-10-17T12:12:27;4.80;;;3.43;;
2211;SDS011;48849;48.758;9.158;2022-10-17T12:15:18;7.30;;;3.30;;
2211;SDS011;48849;48.758;9.158;2022-10-17T12:17:53;4.40;;;3.07;;
2211;SDS011;48849;48.758;9.158;2022-10-17T12:20:32;3.90;;;2.87;;
2211;SDS011;48849;48.758;9.158;2022-10-17T12:23:20;2.87;;;2.53;;
2211;SDS011;48849;48.758;9.158;2022-10-17T12:25:52;5.10;;;2.90;;
2211;SDS011;48849;48.758;9.158;2022-10-17T12:28:23;4.13;;;2.83;;
2211;SDS011;48849;48.758;9.158;2022-10-17T12:30:54;3.90;;;2.60;;
2211;SDS011;48849;48.758;9.158;2022-10-17T12:33:24;8.27;;;3.00;;
2211;SDS011;48849;48.758;9.158;2022-10-17T12:42:30;5.70;;;4.50;;
2211;SDS011;48849;48.758;9.158;2022-10-17T12:44:58;9.00;;;4.57;;
2211;SDS011;48849;48.758;9.158;2022-10-17T12:47:36;6.87;;;4.00;;
2211;SDS011;48849;48.758;9.158;2022-10-17T12:50:17;3.60;;;2.63;;
2211;SDS011;48849;48.758;9.158;2022-10-17T12:53:20;4.70;;;2.63;;
2211;SDS011;48849;48.758;9.158;2022-10-17T12:55:57;3.80;;;2.53;;
2211;SDS011;48849;48.758;9.158;2022-10-17T12:58:24;5.33;;;2.90;;
2211;SDS011;48849;48.758;9.158;2022-10-17T13:00:52;5.17;;;2.40;;
2211;SDS011;48849;48.758;9.158;2022-10-17T13:03:22;6.93;;;3.47;;
2211;SDS011;48849;48.758;9.158;2022-10-17T13:05:51;4.87;;;3.57;;
2211;SDS011;48849;48.758;9.158;2022-10-17T13:08:22;4.80;;;3.90;;
2211;SDS011;48849;48.758;9.158;2022-10-17T13:10:53;6.23;;;4.43;;
2211;SDS011;48849;48.758;9.158;2022-10-17T13:13:21;7.10;;;4.20;;
2211;SDS011;48849;48.758;9.158;2022-10-17T13:15:53;7.30;;;5.23;;
2211;SDS011;48849;48.758;9.158;2022-10-17T13:18:21;7.17;;;4.73;;
2211;SDS011;48849;48.758;9.158;2022-10-17T13:20:56;8.27;;;6.20;;
2211;SDS011;48849;48.758;9.158;2022-10-17T13:23:28;6.03;;;5.40;;
2211;SDS011;48849;48.758;9.158;2022-10-17T13:28:45;7.57;;;5.40;;
2211;SDS011;48849;48.758;9.158;2022-10-17T13:31:26;7.20;;;6.30;;
2211;SDS011;48849;48.758;9.158;2022-10-17T13:33:56;14.60;;;7.50;;
2211;SDS011;48849;48.758;9.158;2022-10-17T13:36:24;10.10;;;7.10;;
2211;SDS011;48849;48.758;9.158;2022-10-17T13:38:53;8.50;;;6.50;;
2211;SDS011;48849;48.758;9.158;2022-10-17T13:41:23;6.10;;;5.50;;
2211;SDS011;48849;48.758;9.158;2022-10-17T13:43:52;6.33;;;4.73;;
2211;SDS011;48849;48.758;9.158;2022-10-17T13:46:24;7.80;;;5.83;;
2211;SDS011;48849;48.758;9.158;2022-10-17T13:48:53;5.97;;;5.37;;
2211;SDS011;48849;48.758;9.158;2022-10-17T13:51:21;6.33;;;4.50;;
2211;SDS011;48849;48.758;9.158;2022-10-17T13:53:49;7.20;;;4.80;;
2211;SDS011;48849;48.758;9.158;2022-10-17T13:56:18;7.07;;;4.80;;
2211;SDS011;48849;48.758;9.158;2022-10-17T13:58:47;6.73;;;4.50;;
2211;SDS011;48849;48.758;9.158;2022-10-17T14:01:15;6.10;;;4.80;;
2211;SDS011;48849;48.758;9.158;2022-10-17T14:03:45;6.13;;;5.50;;
2211;SDS011;48849;48.758;9.158;2022-10-17T14:06:14;7.00;;;6.30;;
2211;SDS011;48849;48.758;9.158;2022-10-17T14:08:47;9.00;;;6.60;;
2211;SDS011;48849;48.758;9.158;2022-10-17T14:11:22;8.30;;;6.47;;
2211;SDS011;48849;48.758;9.158;2022-10-17T14:13:52;7.97;;;5.80;;
2211;SDS011;48849;48.758;9.158;2022-10-17T14:16:22;7.43;;;6.67;;
2211;SDS011;48849;48.758;9.158;2022-10-17T14:18:50;6.80;;;6.10;;
2211;SDS011;48849;48.758;9.158;2022-10-17T14:21:18;8.27;;;6.83;;
2211;SDS011;48849;48.758;9.158;2022-10-17T14:23:47;7.57;;;5.40;;
2211;SDS011;48849;48.758;9.158;2022-10-17T14:26:16;5.80;;;5.00;;
2211;SDS011;48849;48.758;9.158;2022-10-17T14:28:47;5.67;;;5.03;;
2211;SDS011;48849;48.758;9.158;2022-10-17T14:31:29;8.80;;;5.23;;
2211;SDS011;48849;48.758;9.158;2022-10-17T14:33:57;6.87;;;4.83;;
2211;SDS011;48849;48.758;9.158;2022-10-17T14:36:29;5.83;;;5.03;;
2211;SDS011;48849;48.758;9.158;2022-10-17T14:38:58;5.27;;;4.57;;
2211;SDS011;48849;48.758;9.158;2022-10-17T14:41:26;5.13;;;4.33;;
2211;SDS011;48849;48.758;9.158;2022-10-17T14:43:58;6.03;;;4.70;;
2211;SDS011;48849;48.758;9.158;2022-10-17T14:46:27;4.93;;;4.43;;
2211;SDS011;48849;48.758;9.158;2022-10-17T14:48:54;10.30;;;5.10;;
2211;SDS011;48849;48.758;9.158;2022-10-17T14:51:23;5.93;;;5.13;;
2211;SDS011;48849;48.758;9.158;2022-10-17T14:53:58;5.20;;;4.70;;
2211;SDS011;48849;48.758;9.158;2022-10-17T14:56:32;5.90;;;4.90;;
2211;SDS011;48849;48.758;9.158;2022-10-17T14:59:02;7.23;;;5.17;;
2211;SDS011;48849;48.758;9.158;2022-10-17T15:01:30;6.67;;;5.10;;
2211;SDS011;48849;48.758;9.158;2022-10-17T15:03:58;8.67;;;5.00;;
2211;SDS011;48849;48.758;9.158;2022-10-17T15:06:26;6.73;;;5.37;;
2211;SDS011;48849;48.758;9.158;2022-10-17T15:08:54;6.30;;;5.57;;
2211;SDS011;48849;48.758;9.158;2022-10-17T15:11:21;6.30;;;4.93;;
2211;SDS011;48849;48.758;9.158;2022-10-17T15:13:48;6.37;;;4.40;;
2211;SDS011;48849;48.758;9.158;2022-10-17T15:16:17;5.23;;;4.73;;
2211;SDS011;48849;48.758;9.158;2022-10-17T15:18:45;4.50;;;4.10;;
2211;SDS011;48849;48.758;9.158;2022-10-17T15:21:12;9.67;;;4.40;;
2211;SDS011;48849;48.758;9.158;2022-10-17T15:23:40;6.40;;;4.90;;
2211;SDS011;48849;48.758;9.158;2022-10-17T15:26:12;6.30;;;4.30;;
2211;SDS011;48849;48.758;9.158;2022-10-17T15:28:40;9.30;;;4.43;;
2211;SDS011;48849;48.758;9.158;2022-10-17T15:31:08;4.87;;;4.07;;
2211;SDS011;48849;48.758;9.158;2022-10-17T15:33:37;5.73;;;4.27;;
2211;SDS011;48849;48.758;9.158;2022-10-17T15:36:05;10.40;;;5.43;;
2211;SDS011;48849;48.758;9.158;2022-10-17T15:38:44;10.40;;;7.53;;